createdAt,value
2019-06-26T00:00:36.372Z,11.97
2019-06-26T00:03:04.943Z,12.30
2019-06-26T00:05:34.109Z,12.65
2019-06-26T00:08:03.887Z,12.65
2019-06-26T00:10:33.488Z,11.43
2019-06-26T00:13:03.261Z,11.73
2019-06-26T00:15:32.692Z,11.73
2019-06-26T00:18:01.923Z,11.88
2019-06-26T00:20:31.659Z,12.80
2019-06-26T00:23:01.327Z,12.23
2019-06-26T00:25:30.797Z,12.37
2019-06-26T00:28:00.842Z,12.28
2019-06-26T00:30:30.485Z,12.23
2019-06-26T00:32:59.987Z,12.00
2019-06-26T00:35:29.457Z,11.97
2019-06-26T00:37:58.943Z,12.30
2019-06-26T00:40:28.724Z,12.10
2019-06-26T00:42:58.158Z,12.50
2019-06-26T00:45:27.425Z,11.80
2019-06-26T00:47:57.108Z,11.80
2019-06-26T00:50:26.639Z,12.63
2019-06-26T00:52:56.080Z,11.60
2019-06-26T00:55:26.793Z,12.85
2019-06-26T00:57:56.788Z,12.33
2019-06-26T01:00:32.032Z,12.90
2019-06-26T01:03:01.206Z,12.78
2019-06-26T01:05:31.031Z,12.20
2019-06-26T01:08:00.639Z,12.63
2019-06-26T01:10:30.098Z,11.00
2019-06-26T01:12:59.220Z,11.38
2019-06-26T01:15:28.376Z,12.15
2019-06-26T01:17:57.515Z,11.68
2019-06-26T01:20:26.915Z,11.83
2019-06-26T01:22:56.730Z,11.75
2019-06-26T01:25:26.048Z,12.03
2019-06-26T01:27:56.987Z,11.73
2019-06-26T01:30:26.671Z,11.53
2019-06-26T01:32:55.933Z,11.88
2019-06-26T01:35:25.498Z,11.70
2019-06-26T01:37:55.413Z,11.22
2019-06-26T01:40:24.886Z,11.57
2019-06-26T01:42:53.995Z,11.45
2019-06-26T01:45:23.952Z,11.33
2019-06-26T01:47:53.440Z,10.95
2019-06-26T01:50:23.143Z,9.70
2019-06-26T01:52:52.959Z,10.38
2019-06-26T01:55:22.536Z,9.77
2019-06-26T01:57:52.149Z,10.30
2019-06-26T02:00:21.737Z,9.83
2019-06-26T02:02:51.153Z,10.18
2019-06-26T02:05:21.025Z,9.17
2019-06-26T02:07:50.661Z,9.53
2019-06-26T02:10:20.696Z,9.17
2019-06-26T02:12:50.223Z,10.07
2019-06-26T02:15:20.035Z,9.30
2019-06-26T02:17:49.290Z,9.87
2019-06-26T02:20:18.761Z,11.23
2019-06-26T02:22:49.631Z,9.60
2019-06-26T02:25:21.166Z,10.03
2019-06-26T02:27:50.681Z,9.23
2019-06-26T02:30:21.096Z,9.17
2019-06-26T02:32:51.659Z,9.57
2019-06-26T02:35:21.253Z,9.20
2019-06-26T02:37:50.860Z,8.93
2019-06-26T02:40:20.673Z,9.43
2019-06-26T02:42:50.184Z,8.83
2019-06-26T02:45:19.623Z,8.90
2019-06-26T02:47:49.386Z,9.43
2019-06-26T02:50:19.083Z,8.50
2019-06-26T02:52:51.172Z,11.40
2019-06-26T02:55:20.645Z,9.47
2019-06-26T02:57:50.793Z,9.37
2019-06-26T03:00:20.005Z,8.80
2019-06-26T03:02:49.468Z,10.20
2019-06-26T03:05:18.680Z,9.40
2019-06-26T03:07:48.502Z,9.53
2019-06-26T03:10:18.237Z,9.48
2019-06-26T03:12:47.895Z,10.20
2019-06-26T03:15:17.924Z,9.45
2019-06-26T03:17:55.293Z,9.13
2019-06-26T03:20:22.290Z,8.97
2019-06-26T03:22:52.194Z,8.55
2019-06-26T03:25:22.238Z,9.43
2019-06-26T03:27:52.088Z,9.75
2019-06-26T03:30:21.521Z,8.93
2019-06-26T03:32:50.925Z,9.20
2019-06-26T03:35:20.551Z,9.50
2019-06-26T03:37:50.025Z,9.58
2019-06-26T03:40:20.344Z,9.50
2019-06-26T03:42:49.773Z,9.65
2019-06-26T03:45:25.830Z,10.98
2019-06-26T03:47:51.003Z,10.40
2019-06-26T03:50:20.121Z,9.58
2019-06-26T03:52:49.297Z,9.83
2019-06-26T03:55:18.645Z,9.83
2019-06-26T03:57:48.345Z,9.85
2019-06-26T04:00:22.895Z,10.30
2019-06-26T04:02:53.843Z,10.93
2019-06-26T04:05:23.506Z,10.20
2019-06-26T04:07:53.583Z,11.03
2019-06-26T04:10:23.257Z,10.28
2019-06-26T04:12:53.043Z,10.32
2019-06-26T04:15:40.939Z,10.28
2019-06-26T04:17:57.068Z,12.73
2019-06-26T04:20:27.151Z,10.23
2019-06-26T04:22:56.350Z,9.15
2019-06-26T04:25:25.601Z,9.83
2019-06-26T04:27:55.934Z,9.55
2019-06-26T04:30:25.170Z,9.43
2019-06-26T04:32:55.251Z,9.93
2019-06-26T04:35:26.507Z,12.55
2019-06-26T04:37:56.407Z,9.10
2019-06-26T04:40:25.974Z,9.33
2019-06-26T04:42:57.502Z,9.73
2019-06-26T04:45:27.035Z,8.78
2019-06-26T04:47:56.833Z,8.70
2019-06-26T04:50:27.165Z,8.10
2019-06-26T04:52:57.008Z,7.40
2019-06-26T05:00:27.333Z,12.23
2019-06-26T05:02:58.374Z,8.95
2019-06-26T05:05:39.681Z,9.55
2019-06-26T05:08:05.483Z,9.30
2019-06-26T05:10:34.669Z,8.90
2019-06-26T05:13:05.529Z,9.67
2019-06-26T05:15:35.101Z,12.63
2019-06-26T05:18:04.523Z,9.63
2019-06-26T05:20:34.378Z,9.33
2019-06-26T05:23:04.150Z,8.93
2019-06-26T05:25:34.072Z,9.43
2019-06-26T05:28:03.899Z,10.48
2019-06-26T05:30:33.414Z,9.80
2019-06-26T05:33:03.706Z,9.35
2019-06-26T05:35:35.213Z,11.97
2019-06-26T05:38:04.737Z,9.30
2019-06-26T05:40:35.300Z,9.77
2019-06-26T05:43:05.207Z,14.18
2019-06-26T05:45:34.601Z,15.03
2019-06-26T05:48:04.019Z,11.50
2019-06-26T05:50:34.163Z,9.35
2019-06-26T05:53:05.673Z,8.58
2019-06-26T05:55:35.114Z,8.38
2019-06-26T05:58:05.061Z,11.35
2019-06-26T06:00:34.471Z,7.65
2019-06-26T06:03:03.594Z,11.33
2019-06-26T06:05:34.304Z,9.93
2019-06-26T06:08:03.521Z,8.80
2019-06-26T06:10:32.970Z,8.83
2019-06-26T06:13:02.569Z,9.18
2019-06-26T06:15:32.208Z,7.87
2019-06-26T06:18:02.245Z,10.72
2019-06-26T06:20:37.807Z,8.35
2019-06-26T06:23:07.394Z,7.90
2019-06-26T06:25:36.992Z,7.20
2019-06-26T06:28:06.559Z,9.53
2019-06-26T06:30:36.314Z,10.48
2019-06-26T06:33:05.758Z,10.38
2019-06-26T06:35:35.067Z,10.00
2019-06-26T06:38:05.025Z,14.80
2019-06-26T06:40:35.222Z,11.50
2019-06-26T06:43:04.615Z,8.80
2019-06-26T06:45:35.206Z,10.85
2019-06-26T06:48:05.225Z,11.25
2019-06-26T06:50:34.910Z,11.50
2019-06-26T06:53:04.131Z,9.25
2019-06-26T06:55:33.525Z,12.20
2019-06-26T06:58:03.052Z,11.47
2019-06-26T07:00:32.609Z,9.95
2019-06-26T07:03:02.073Z,10.60
2019-06-26T07:05:31.555Z,11.50
2019-06-26T07:08:00.598Z,10.32
2019-06-26T07:10:30.067Z,10.68
2019-06-26T07:12:59.271Z,12.68
2019-06-26T07:15:29.334Z,12.70
2019-06-26T07:17:58.941Z,13.53
2019-06-26T07:20:28.578Z,9.88
2019-06-26T07:23:02.766Z,10.28
2019-06-26T07:25:32.505Z,12.07
2019-06-26T07:28:02.304Z,9.00
2019-06-26T07:30:31.726Z,10.08
2019-06-26T07:33:01.412Z,7.72
2019-06-26T07:35:33.161Z,9.37
2019-06-26T07:38:03.547Z,18.37
2019-06-26T07:40:33.323Z,8.65
2019-06-26T07:43:02.988Z,9.50
2019-06-26T07:45:32.843Z,16.87
2019-06-26T07:48:05.527Z,11.97
2019-06-26T07:50:35.201Z,8.28
2019-06-26T07:53:06.442Z,11.20
2019-06-26T07:55:35.864Z,13.50
2019-06-26T07:58:05.691Z,9.70
2019-06-26T08:00:37.533Z,11.70
2019-06-26T08:03:06.957Z,7.60
2019-06-26T08:05:36.657Z,10.28
2019-06-26T08:08:07.558Z,9.70
2019-06-26T08:10:36.756Z,10.58
2019-06-26T08:13:06.619Z,11.53
2019-06-26T08:15:36.367Z,9.73
2019-06-26T08:18:08.867Z,11.18
2019-06-26T08:20:55.130Z,12.10
2019-06-26T08:23:09.843Z,9.93
2019-06-26T08:25:39.271Z,11.28
2019-06-26T08:28:09.359Z,9.75
2019-06-26T08:30:39.213Z,11.55
2019-06-26T08:33:08.912Z,11.85
2019-06-26T08:35:38.429Z,10.15
2019-06-26T08:38:11.365Z,10.80
2019-06-26T08:40:39.771Z,10.70
2019-06-26T08:43:09.883Z,8.75
2019-06-26T08:45:39.334Z,8.43
2019-06-26T08:48:22.975Z,13.78
2019-06-26T08:50:39.923Z,11.55
2019-06-26T08:53:10.269Z,9.55
2019-06-26T08:55:39.816Z,11.37
2019-06-26T08:58:09.396Z,9.73
2019-06-26T09:00:39.011Z,9.75
2019-06-26T09:03:08.461Z,10.68
2019-06-26T09:05:47.857Z,8.83
2019-06-26T09:08:11.205Z,10.50
2019-06-26T09:10:45.070Z,12.90
2019-06-26T09:13:14.269Z,9.28
2019-06-26T09:15:49.706Z,9.50
2019-06-26T09:18:31.123Z,13.55
2019-06-26T09:20:48.572Z,10.82
2019-06-26T09:23:18.214Z,9.60
2019-06-26T09:25:47.606Z,9.55
2019-06-26T09:28:18.113Z,9.13
2019-06-26T09:30:47.590Z,9.70
2019-06-26T09:33:17.105Z,9.15
2019-06-26T09:35:47.003Z,8.25
2019-06-26T09:38:16.950Z,12.00
2019-06-26T09:40:45.999Z,11.60
2019-06-26T09:43:17.579Z,9.70
2019-06-26T09:45:47.021Z,6.70
2019-06-26T09:48:16.422Z,7.92
2019-06-26T09:50:46.080Z,8.00
2019-06-26T09:53:15.464Z,11.07
2019-06-26T09:55:44.902Z,6.05
2019-06-26T09:58:14.652Z,13.58
2019-06-26T10:00:44.883Z,9.15
2019-06-26T10:03:14.591Z,7.65
2019-06-26T10:05:44.363Z,7.00
2019-06-26T10:08:13.508Z,7.50
2019-06-26T10:10:43.863Z,10.18
2019-06-26T10:13:13.679Z,8.38
2019-06-26T10:15:43.744Z,10.23
2019-06-26T10:18:16.966Z,9.45
2019-06-26T10:20:46.388Z,9.45
2019-06-26T10:23:15.996Z,11.22
2019-06-26T10:25:45.722Z,7.70
2019-06-26T10:28:15.555Z,9.67
2019-06-26T10:30:45.229Z,8.63
2019-06-26T10:33:14.494Z,8.35
2019-06-26T10:35:43.764Z,12.23
2019-06-26T10:38:13.170Z,8.48
2019-06-26T10:40:43.182Z,10.13
2019-06-26T10:43:12.840Z,10.25
2019-06-26T10:45:43.030Z,11.50
2019-06-26T10:48:12.738Z,11.18
2019-06-26T10:50:51.967Z,14.30
2019-06-26T10:53:19.940Z,15.43
2019-06-26T10:55:49.679Z,10.72
2019-06-26T10:58:21.514Z,11.75
2019-06-26T11:00:50.978Z,9.28
2019-06-26T11:03:20.547Z,11.08
2019-06-26T11:05:50.154Z,10.23
2019-06-26T11:08:24.593Z,8.90
2019-06-26T11:10:54.677Z,10.32
2019-06-26T11:13:24.491Z,10.03
2019-06-26T11:15:54.214Z,9.68
2019-06-26T11:18:24.706Z,9.33
2019-06-26T11:20:53.842Z,10.68
2019-06-26T11:23:24.504Z,9.28
2019-06-26T11:25:53.868Z,9.70
2019-06-26T11:28:23.403Z,10.45
2019-06-26T11:30:53.658Z,12.93
2019-06-26T11:33:23.133Z,11.60
2019-06-26T11:35:53.802Z,10.13
2019-06-26T11:38:23.776Z,10.80
2019-06-26T11:40:53.612Z,11.40
2019-06-26T11:43:23.688Z,9.60
2019-06-26T11:45:56.044Z,10.48
2019-06-26T11:48:25.343Z,12.05
2019-06-26T11:50:54.693Z,15.60
2019-06-26T11:53:24.246Z,12.93
2019-06-26T11:55:53.849Z,12.35
2019-06-26T11:58:26.026Z,10.93
2019-06-26T12:00:56.534Z,10.68
2019-06-26T12:03:26.690Z,10.93
2019-06-26T12:06:11.951Z,12.23
2019-06-26T12:08:29.461Z,9.80
2019-06-26T12:10:58.857Z,11.00
2019-06-26T12:13:28.515Z,10.25
2019-06-26T12:15:58.810Z,10.25
2019-06-26T12:18:28.687Z,12.60
2019-06-26T12:20:59.369Z,9.95
2019-06-26T12:23:28.642Z,12.37
2019-06-26T12:26:01.215Z,9.90
2019-06-26T12:28:32.676Z,11.18
2019-06-26T12:31:02.254Z,11.22
2019-06-26T12:33:32.648Z,9.75
2019-06-26T12:36:02.070Z,12.35
2019-06-26T12:38:32.189Z,10.98
2019-06-26T12:41:01.912Z,9.08
2019-06-26T12:43:32.577Z,12.70
2019-06-26T12:46:02.453Z,9.10
2019-06-26T12:48:32.976Z,8.55
2019-06-26T12:51:03.124Z,11.50
2019-06-26T12:53:35.577Z,8.95
2019-06-26T12:56:08.204Z,7.80
2019-06-26T12:58:37.890Z,8.53
2019-06-26T13:01:09.932Z,8.08
2019-06-26T13:03:39.614Z,8.00
2019-06-26T13:06:09.654Z,11.18
2019-06-26T13:08:40.178Z,10.33
2019-06-26T13:11:09.976Z,8.95
2019-06-26T13:13:39.166Z,9.40
2019-06-26T13:16:09.068Z,9.53
2019-06-26T13:18:39.315Z,9.00
2019-06-26T13:21:09.156Z,12.15
2019-06-26T13:23:40.066Z,9.38
2019-06-26T13:26:09.622Z,8.45
2019-06-26T13:28:38.992Z,10.10
2019-06-26T13:31:09.036Z,8.08
2019-06-26T13:33:39.311Z,8.85
2019-06-26T13:36:08.602Z,9.58
2019-06-26T13:38:38.197Z,10.98
2019-06-26T13:41:08.016Z,10.30
2019-06-26T13:43:37.909Z,7.50
2019-06-26T13:46:07.798Z,7.87
2019-06-26T13:48:37.675Z,8.70
2019-06-26T13:51:09.924Z,8.15
2019-06-26T13:53:38.018Z,8.95
2019-06-26T13:56:07.433Z,8.88
2019-06-26T13:58:36.589Z,8.95
2019-06-26T14:01:05.757Z,10.15
2019-06-26T14:03:35.591Z,8.90
2019-06-26T14:06:05.062Z,8.13
2019-06-26T14:08:34.986Z,7.40
2019-06-26T14:11:07.329Z,7.87
2019-06-26T14:13:35.701Z,7.20
2019-06-26T14:16:05.593Z,9.30
2019-06-26T14:18:36.868Z,7.92
2019-06-26T14:21:06.880Z,7.00
2019-06-26T14:23:37.970Z,7.65
2019-06-26T14:26:11.447Z,6.62
2019-06-26T14:28:40.982Z,7.28
2019-06-26T14:31:10.557Z,8.25
2019-06-26T14:33:40.825Z,9.05
2019-06-26T14:36:10.575Z,10.98
2019-06-26T14:38:40.420Z,7.33
2019-06-26T14:41:10.394Z,9.00
2019-06-26T14:43:40.024Z,9.40
2019-06-26T14:46:13.172Z,8.98
2019-06-26T14:48:42.601Z,7.15
2019-06-26T14:51:12.120Z,11.15
2019-06-26T14:53:41.239Z,11.43
2019-06-26T14:56:11.453Z,9.95
2019-06-26T14:58:41.999Z,7.93
2019-06-26T15:01:11.647Z,8.23
2019-06-26T15:03:40.860Z,9.80
2019-06-26T15:06:16.557Z,8.63
2019-06-26T15:08:41.418Z,7.50
2019-06-26T15:11:11.266Z,8.23
2019-06-26T15:13:40.694Z,9.45
2019-06-26T15:16:09.953Z,7.83
2019-06-26T15:18:39.118Z,6.95
2019-06-26T15:21:08.623Z,7.70
2019-06-26T15:23:37.719Z,9.08
2019-06-26T15:26:06.932Z,7.75
2019-06-26T15:28:36.712Z,6.67
2019-06-26T15:31:06.005Z,9.63
2019-06-26T15:33:36.789Z,10.55
2019-06-26T15:36:07.585Z,8.68
2019-06-26T15:38:36.740Z,8.75
2019-06-26T15:41:06.282Z,8.78
2019-06-26T15:43:36.006Z,7.62
2019-06-26T15:46:06.101Z,8.30
2019-06-26T15:48:35.838Z,9.23
2019-06-26T15:51:05.480Z,9.55
2019-06-26T15:53:34.663Z,6.97
2019-06-26T15:56:03.935Z,8.75
2019-06-26T15:58:33.832Z,7.22
2019-06-26T16:01:04.086Z,9.60
2019-06-26T16:03:34.125Z,7.95
2019-06-26T16:06:03.586Z,9.15
2019-06-26T16:08:32.991Z,10.68
2019-06-26T16:11:02.747Z,7.72
2019-06-26T16:13:32.652Z,7.75
2019-06-26T16:16:02.622Z,10.68
2019-06-26T16:18:45.469Z,6.40
2019-06-26T16:21:14.628Z,10.53
2019-06-26T16:23:43.794Z,9.35
2019-06-26T16:26:13.666Z,7.67
2019-06-26T16:28:43.763Z,8.98
2019-06-26T16:31:13.423Z,7.35
2019-06-26T16:33:43.204Z,8.45
2019-06-26T16:36:12.753Z,7.87
2019-06-26T16:38:42.095Z,7.87
2019-06-26T16:41:11.512Z,7.83
2019-06-26T16:43:41.667Z,7.12
2019-06-26T16:46:11.330Z,9.33
2019-06-26T16:48:40.681Z,7.65
2019-06-26T16:51:10.435Z,11.25
2019-06-26T16:53:39.644Z,9.45
2019-06-26T16:56:09.021Z,8.77
2019-06-26T16:58:38.639Z,6.80
2019-06-26T17:01:08.848Z,8.30
2019-06-26T17:03:38.339Z,10.85
2019-06-26T17:06:08.095Z,11.35
2019-06-26T17:08:38.822Z,8.13
2019-06-26T17:11:08.126Z,8.18
2019-06-26T17:13:39.606Z,9.70
2019-06-26T17:16:08.679Z,11.05
2019-06-26T17:18:38.043Z,8.03
2019-06-26T17:21:08.198Z,13.20
2019-06-26T17:23:37.679Z,8.08
2019-06-26T17:26:07.640Z,10.15
2019-06-26T17:28:37.123Z,10.00
2019-06-26T17:31:06.963Z,7.85
2019-06-26T17:33:35.952Z,9.50
2019-06-26T17:36:05.150Z,7.65
2019-06-26T17:38:34.879Z,7.55
2019-06-26T17:41:05.236Z,8.97
2019-06-26T17:43:34.552Z,8.70
2019-06-26T17:46:03.663Z,7.97
2019-06-26T17:48:33.065Z,8.18
2019-06-26T17:51:02.801Z,7.78
2019-06-26T17:53:32.666Z,8.30
2019-06-26T17:56:01.978Z,7.35
2019-06-26T17:58:31.371Z,10.13
2019-06-26T18:01:00.545Z,6.92
2019-06-26T18:03:29.494Z,8.45
2019-06-26T18:05:58.958Z,8.40
2019-06-26T18:08:28.491Z,9.53
2019-06-26T18:10:58.105Z,7.47
2019-06-26T18:13:27.269Z,10.40
2019-06-26T18:15:56.377Z,7.80
2019-06-26T18:18:26.212Z,10.43
2019-06-26T18:20:55.366Z,8.77
2019-06-26T18:23:37.083Z,8.30
2019-06-26T18:26:11.937Z,10.13
2019-06-26T18:28:27.095Z,7.80
2019-06-26T18:30:56.402Z,7.42
2019-06-26T18:33:26.684Z,8.85
2019-06-26T18:35:56.178Z,7.95
2019-06-26T18:38:28.818Z,8.48
2019-06-26T18:40:58.173Z,12.40
2019-06-26T18:43:27.456Z,8.73
2019-06-26T18:45:56.422Z,9.00
2019-06-26T18:48:27.013Z,11.50
2019-06-26T18:50:56.894Z,10.43
2019-06-26T18:53:26.487Z,11.55
2019-06-26T18:55:58.871Z,9.80
2019-06-26T18:58:30.727Z,10.58
2019-06-26T19:00:59.641Z,11.45
2019-06-26T19:03:28.810Z,9.70
2019-06-26T19:05:58.009Z,9.17
2019-06-26T19:08:27.727Z,10.28
2019-06-26T19:10:56.968Z,11.57
2019-06-26T19:13:26.634Z,11.38
2019-06-26T19:15:56.040Z,11.40
2019-06-26T19:18:26.508Z,11.70
2019-06-26T19:20:56.219Z,13.05
2019-06-26T19:23:25.391Z,12.53
2019-06-26T19:25:54.975Z,13.25
2019-06-26T19:28:24.491Z,13.90
2019-06-26T19:30:54.279Z,11.78
2019-06-26T19:33:23.706Z,12.47
2019-06-26T19:35:53.314Z,11.20
2019-06-26T19:38:22.699Z,15.45
2019-06-26T19:40:52.470Z,13.35
2019-06-26T19:43:21.770Z,11.40
2019-06-26T19:45:51.581Z,13.32
2019-06-26T19:48:21.028Z,11.08
2019-06-26T19:50:50.233Z,11.73
2019-06-26T19:53:20.067Z,12.88
2019-06-26T19:55:49.691Z,11.80
2019-06-26T19:58:21.508Z,12.45
2019-06-26T20:00:50.595Z,12.90
2019-06-26T20:03:19.975Z,12.50
2019-06-26T20:05:49.445Z,11.18
2019-06-26T20:08:21.190Z,11.10
2019-06-26T20:10:50.557Z,12.75
2019-06-26T20:13:20.547Z,12.90
2019-06-26T20:15:49.939Z,12.40
2019-06-26T20:18:19.554Z,11.28
2019-06-26T20:20:49.513Z,15.72
2019-06-26T20:23:19.472Z,14.67
2019-06-26T20:25:49.039Z,14.63
2019-06-26T20:28:18.347Z,13.65
2019-06-26T20:30:49.292Z,13.88
2019-06-26T20:33:19.759Z,13.93
2019-06-26T20:35:49.415Z,15.98
2019-06-26T20:38:18.893Z,17.23
2019-06-26T20:40:50.596Z,14.38
2019-06-26T20:43:20.026Z,16.02
2019-06-26T20:45:49.797Z,14.25
2019-06-26T20:48:19.068Z,12.88
2019-06-26T20:50:48.199Z,15.85
2019-06-26T20:53:27.807Z,15.93
2019-06-26T20:55:55.507Z,17.48
2019-06-26T20:58:27.602Z,18.13
2019-06-26T21:00:57.740Z,18.25
2019-06-26T21:03:27.312Z,15.55
2019-06-26T21:05:57.081Z,15.20
2019-06-26T21:08:29.765Z,16.07
2019-06-26T21:10:59.386Z,16.00
2019-06-26T21:13:29.670Z,14.95
2019-06-26T21:16:00.129Z,14.18
2019-06-26T21:18:30.463Z,22.37
2019-06-26T21:21:00.708Z,17.98
2019-06-26T21:23:42.139Z,17.40
2019-06-26T21:26:11.589Z,17.07
2019-06-26T21:28:43.090Z,18.67
2019-06-26T21:31:12.966Z,18.17
2019-06-26T21:33:42.702Z,14.98
2019-06-26T21:36:12.937Z,16.75
2019-06-26T21:38:42.588Z,17.30
2019-06-26T21:41:16.044Z,18.85
2019-06-26T21:43:45.594Z,18.10
2019-06-26T21:46:15.109Z,17.97
2019-06-26T21:48:45.202Z,19.30
2019-06-26T21:51:14.822Z,18.65
2019-06-26T21:53:43.940Z,18.65
2019-06-26T21:56:14.194Z,17.48
2019-06-26T21:58:43.855Z,18.90
2019-06-26T22:01:13.544Z,16.62
2019-06-26T22:03:43.215Z,18.57
2019-06-26T22:06:12.970Z,15.08
2019-06-26T22:08:42.059Z,13.53
2019-06-26T22:11:11.630Z,13.93
2019-06-26T22:13:41.579Z,15.40
2019-06-26T22:16:12.329Z,15.37
2019-06-26T22:18:41.922Z,15.05
2019-06-26T22:21:11.383Z,14.65
2019-06-26T22:23:41.376Z,16.73
2019-06-26T22:26:14.141Z,13.95
2019-06-26T22:28:43.018Z,17.40
2019-06-26T22:31:12.793Z,16.52
2019-06-26T22:33:44.185Z,20.02
2019-06-26T22:36:13.596Z,15.80
2019-06-26T22:38:45.013Z,17.05
2019-06-26T22:41:14.604Z,15.35
2019-06-26T22:43:44.383Z,14.93
2019-06-26T22:46:14.281Z,15.10
2019-06-26T22:48:43.906Z,19.73
2019-06-26T22:51:14.110Z,17.15
2019-06-26T22:53:43.616Z,15.88
2019-06-26T22:56:13.345Z,17.07
2019-06-26T22:58:42.457Z,15.85
2019-06-26T23:01:11.819Z,15.60
2019-06-26T23:03:41.732Z,15.93
2019-06-26T23:06:11.002Z,14.55
2019-06-26T23:08:40.578Z,15.53
2019-06-26T23:11:10.040Z,14.60
2019-06-26T23:13:39.842Z,15.85
2019-06-26T23:16:09.333Z,12.50
2019-06-26T23:18:38.494Z,15.20
2019-06-26T23:21:07.624Z,16.57
2019-06-26T23:23:38.629Z,12.35
2019-06-26T23:26:23.068Z,14.05
2019-06-26T23:28:39.300Z,13.60
2019-06-26T23:31:12.581Z,16.10
2019-06-26T23:33:42.317Z,13.13
2019-06-26T23:36:11.688Z,14.00
2019-06-26T23:38:40.808Z,14.00
2019-06-26T23:41:09.998Z,14.60
2019-06-26T23:43:42.615Z,15.20
2019-06-26T23:46:12.405Z,12.82
2019-06-26T23:48:45.906Z,13.90
2019-06-26T23:51:15.812Z,16.73
2019-06-26T23:54:02.662Z,15.75
2019-06-26T23:56:40.467Z,15.18
2019-06-26T23:59:03.059Z,12.15
